Time;durP1;ratioP1;P1;durP2;ratioP2;P2;SDS_P1;SDS_P2;PMS_P1;PMS_P2;Temp;Humidity;BMP_temperature;BMP_pressure;BME280_temperature;BME280_humidity;BME280_pressure;Samples;Min_cycle;Max_cycle;Signal;HPM_P1;HPM_P2
2021/06/15 00:00:17;;;;;;;11.00;3.60;;;14.60;82.40;;;;;;5050121;28;20602;-68
2021/06/15 00:02:44;;;;;;;7.63;3.45;;;14.80;80.80;;;;;;5050457;28;20430;-71
2021/06/15 00:05:15;;;;;;;4.70;3.50;;;14.80;80.80;;;;;;5050677;28;20419;-69
2021/06/15 00:07:42;;;;;;;8.32;3.53;;;14.90;80.90;;;;;;5049954;28;20031;-71
2021/06/15 00:10:19;;;;;;;4.97;3.45;;;15.10;79.10;;;;;;5049888;28;20336;-69
2021/06/15 00:12:46;;;;;;;10.43;4.43;;;15.30;79.20;;;;;;5049754;28;20654;-70
2021/06/15 00:15:15;;;;;;;8.10;3.78;;;15.30;78.80;;;;;;5050150;28;20081;-70
2021/06/15 00:17:42;;;;;;;8.15;4.05;;;15.40;79.20;;;;;;5047467;28;20021;-69
2021/06/15 00:20:10;;;;;;;9.50;4.10;;;15.60;77.70;;;;;;5040608;28;20017;-71
2021/06/15 00:22:37;;;;;;;6.18;4.65;;;15.60;77.90;;;;;;5040104;28;20025;-71
2021/06/15 00:25:06;;;;;;;13.25;5.05;;;15.50;77.50;;;;;;5041917;28;20749;-68
2021/06/15 00:27:33;;;;;;;5.65;3.00;;;15.40;78.60;;;;;;5036190;28;20142;-69
2021/06/15 00:30:00;;;;;;;5.78;3.63;;;15.30;77.50;;;;;;5039238;28;20063;-70
2021/06/15 00:32:27;;;;;;;6.28;3.63;;;15.40;77.80;;;;;;5036104;28;20037;-67
2021/06/15 00:34:54;;;;;;;9.85;4.97;;;15.50;78.80;;;;;;5037823;28;20104;-65
2021/06/15 00:37:21;;;;;;;5.65;4.80;;;15.60;77.20;;;;;;5040882;28;20056;-66
2021/06/15 00:39:48;;;;;;;7.65;5.32;;;15.70;77.80;;;;;;5038828;28;20021;-68
2021/06/15 00:42:16;;;;;;;6.38;5.57;;;15.80;77.10;;;;;;5037593;28;20028;-70
2021/06/15 00:44:43;;;;;;;7.50;5.55;;;15.80;78.70;;;;;;5041539;28;20147;-65
2021/06/15 00:47:11;;;;;;;11.95;7.72;;;15.80;77.50;;;;;;5041182;28;20021;-68
2021/06/15 00:49:39;;;;;;;14.27;12.65;;;15.90;77.60;;;;;;5037389;28;20022;-67
2021/06/15 00:52:07;;;;;;;9.30;6.32;;;16.10;77.50;;;;;;5039818;28;20017;-71
2021/06/15 00:54:34;;;;;;;8.88;4.90;;;16.20;77.60;;;;;;5038813;28;20112;-68
2021/06/15 00:57:03;;;;;;;7.55;4.93;;;16.40;75.40;;;;;;5039507;28;20033;-70
2021/06/15 00:59:30;;;;;;;6.10;4.97;;;16.50;73.70;;;;;;5038898;28;20448;-66
2021/06/15 01:01:57;;;;;;;8.50;4.60;;;16.50;73.90;;;;;;5016534;28;20028;-67
2021/06/15 01:04:24;;;;;;;9.48;5.10;;;16.50;74.20;;;;;;5021405;28;20076;-65
2021/06/15 01:07:15;;;;;;;11.90;4.88;;;16.60;74.80;;;;;;5015908;28;20033;-68
2021/06/15 01:10:00;;;;;;;12.50;4.70;;;16.70;75.00;;;;;;5018320;28;20056;-65
2021/06/15 01:12:45;;;;;;;8.40;5.28;;;16.70;73.60;;;;;;5016320;28;20026;-66
2021/06/15 01:15:24;;;;;;;10.10;5.53;;;16.70;73.50;;;;;;5022855;28;20025;-71
2021/06/15 01:18:01;;;;;;;10.07;4.72;;;16.60;74.40;;;;;;5016454;28;20021;-66
2021/06/15 01:20:36;;;;;;;4.78;3.88;;;16.60;74.50;;;;;;5018490;28;20118;-69
2021/06/15 01:23:51;;;;;;;5.70;3.63;;;16.50;74.90;;;;;;5016164;28;20510;-66
2021/06/15 01:26:36;;;;;;;8.23;4.20;;;16.50;75.00;;;;;;4920866;28;20596;-65
2021/06/15 01:29:06;;;;;;;5.53;4.40;;;16.90;73.90;;;;;;5017729;28;20065;-68
2021/06/15 01:31:47;;;;;;;3.80;3.10;;;17.10;72.70;;;;;;4996266;28;20369;-65
2021/06/15 01:34:24;;;;;;;4.22;2.50;;;17.20;72.20;;;;;;5023038;28;20024;-67
2021/06/15 01:37:25;;;;;;;10.60;4.00;;;17.40;71.80;;;;;;5023872;28;20022;-68
2021/06/15 01:40:13;;;;;;;4.00;2.42;;;17.50;72.60;;;;;;5017830;28;20365;-67
2021/06/15 01:42:52;;;;;;;2.80;1.70;;;17.70;69.90;;;;;;5016649;28;20789;-64
2021/06/15 01:45:23;;;;;;;2.45;1.65;;;17.80;69.60;;;;;;5016099;28;20050;-71
2021/06/15 01:48:15;;;;;;;4.93;2.47;;;17.90;70.20;;;;;;5013321;28;20033;-65
2021/06/15 01:50:44;;;;;;;5.07;2.47;;;18.00;69.80;;;;;;5023007;28;20056;-65
2021/06/15 01:53:15;;;;;;;6.57;1.98;;;18.00;70.60;;;;;;5017316;28;20104;-65
2021/06/15 01:55:47;;;;;;;4.32;2.30;;;18.10;68.80;;;;;;5015512;28;20393;-67
2021/06/15 01:58:16;;;;;;;5.18;2.22;;;18.10;68.00;;;;;;5019341;28;20354;-68
2021/06/15 02:00:45;;;;;;;7.78;2.63;;;18.10;69.10;;;;;;5014130;28;20113;-68
2021/06/15 02:03:13;;;;;;;5.95;2.00;;;18.10;69.60;;;;;;5015245;28;20029;-69
2021/06/15 02:05:52;;;;;;;3.97;1.98;;;18.20;68.60;;;;;;5015900;28;20064;-65
2021/06/15 02:08:42;;;;;;;3.95;1.88;;;18.40;68.10;;;;;;5015260;28;20022;-68
2021/06/15 02:11:09;;;;;;;2.70;1.58;;;18.40;67.00;;;;;;5015114;28;20033;-68
2021/06/15 02:13:41;;;;;;;3.05;1.85;;;18.50;67.60;;;;;;5021250;28;20101;-70
2021/06/15 02:16:09;;;;;;;1.60;1.20;;;18.70;65.70;;;;;;5015391;28;20033;-68
2021/06/15 02:18:37;;;;;;;5.22;2.10;;;18.40;67.20;;;;;;5016378;28;20025;-70
2021/06/15 02:21:09;;;;;;;4.72;1.90;;;18.10;66.80;;;;;;5023416;28;20019;-71
2021/06/15 02:23:38;;;;;;;7.25;1.77;;;17.90;68.10;;;;;;5015005;28;20021;-67
2021/06/15 02:26:08;;;;;;;4.05;1.67;;;17.70;68.30;;;;;;5013847;28;20037;-73
2021/06/15 02:28:36;;;;;;;2.80;1.70;;;17.60;69.80;;;;;;5015723;28;20801;-72
2021/06/15 02:31:04;;;;;;;4.47;1.55;;;17.60;70.50;;;;;;5003245;28;20053;-69
2021/06/15 02:33:42;;;;;;;3.42;1.25;;;17.80;69.90;;;;;;5014770;28;20034;-68
2021/06/15 02:36:15;;;;;;;3.33;1.55;;;18.10;69.20;;;;;;5015508;28;20026;-67
2021/06/15 02:38:52;;;;;;;7.82;1.70;;;18.40;67.30;;;;;;5016860;28;20484;-67
2021/06/15 02:41:21;;;;;;;4.55;1.48;;;18.50;67.00;;;;;;5015449;28;20678;-68
2021/06/15 02:43:58;;;;;;;1.63;1.40;;;18.60;67.10;;;;;;5015340;28;20021;-64
2021/06/15 02:46:28;;;;;;;2.30;1.58;;;18.70;66.60;;;;;;5026861;28;20049;-66
2021/06/15 02:48:59;;;;;;;3.97;1.92;;;18.50;66.80;;;;;;5015354;28;20025;-66
2021/06/15 02:51:33;;;;;;;4.60;1.65;;;18.40;67.70;;;;;;5018312;28;20025;-69
2021/06/15 02:54:10;;;;;;;2.75;1.15;;;18.40;68.40;;;;;;5015107;28;20066;-68
2021/06/15 02:56:44;;;;;;;2.58;1.40;;;18.50;67.90;;;;;;5023055;28;20018;-69
2021/06/15 02:59:10;;;;;;;2.58;1.58;;;18.50;68.10;;;;;;5018332;28;20444;-69
2021/06/15 03:01:38;;;;;;;1.92;1.42;;;18.60;66.50;;;;;;5018590;28;20022;-67
2021/06/15 03:04:05;;;;;;;2.22;1.00;;;18.30;66.80;;;;;;5016549;28;20025;-68
2021/06/15 03:06:32;;;;;;;1.90;1.15;;;18.20;68.10;;;;;;5024477;28;20028;-70
2021/06/15 03:08:59;;;;;;;2.67;1.63;;;18.10;68.30;;;;;;5020348;28;20033;-69
2021/06/15 03:11:28;;;;;;;3.42;1.40;;;18.00;68.80;;;;;;5020233;28;20030;-69
2021/06/15 03:14:10;;;;;;;2.20;1.65;;;18.00;68.40;;;;;;5021002;28;20044;-69
2021/06/15 03:16:37;;;;;;;4.20;1.33;;;18.10;69.50;;;;;;5018185;28;20089;-66
2021/06/15 03:19:20;;;;;;;2.50;1.55;;;18.10;68.30;;;;;;5021832;28;20488;-67
2021/06/15 03:21:59;;;;;;;5.18;2.72;;;18.10;69.20;;;;;;5019580;28;20014;-66
2021/06/15 03:24:31;;;;;;;2.55;2.15;;;18.10;70.00;;;;;;5018093;28;20054;-65
2021/06/15 03:27:07;;;;;;;5.28;1.63;;;18.10;69.00;;;;;;5015889;28;20026;-69
2021/06/15 03:29:40;;;;;;;6.60;1.60;;;18.20;68.90;;;;;;5027247;28;20120;-70
2021/06/15 03:32:14;;;;;;;6.63;1.40;;;18.40;68.90;;;;;;4330521;28;10021577;-66
2021/06/15 03:34:51;;;;;;;6.63;1.90;;;18.40;67.80;;;;;;5022813;28;20073;-69
2021/06/15 03:37:22;;;;;;;2.05;1.05;;;18.40;66.80;;;;;;5041760;28;20052;-67
2021/06/15 03:39:52;;;;;;;9.38;2.25;;;18.40;67.80;;;;;;5028417;28;20117;-65
2021/06/15 03:42:25;;;;;;;2.55;1.45;;;18.40;68.60;;;;;;5009801;28;20017;-67
2021/06/15 03:45:04;;;;;;;3.35;1.73;;;18.40;68.90;;;;;;5028782;28;20040;-68
2021/06/15 03:47:35;;;;;;;2.58;1.52;;;18.50;68.30;;;;;;5027266;28;20297;-71
2021/06/15 03:50:03;;;;;;;4.07;1.85;;;18.60;67.00;;;;;;5027779;28;21217;-67
2021/06/15 03:52:38;;;;;;;5.25;1.67;;;18.50;67.50;;;;;;5027824;28;20585;-67
2021/06/15 03:55:08;;;;;;;6.90;1.70;;;18.40;67.50;;;;;;5027501;28;20545;-69
2021/06/15 03:57:42;;;;;;;3.33;1.67;;;18.40;68.20;;;;;;5034173;28;20411;-68
2021/06/15 04:00:20;;;;;;;2.95;1.50;;;18.40;68.40;;;;;;5022362;28;20028;-67
2021/06/15 04:02:50;;;;;;;3.42;1.80;;;18.30;68.30;;;;;;5031640;28;20113;-69
2021/06/15 04:05:19;;;;;;;2.28;1.27;;;18.30;68.80;;;;;;5027707;28;20548;-67
2021/06/15 04:07:47;;;;;;;2.53;1.35;;;18.40;69.40;;;;;;5027427;28;20060;-68
2021/06/15 04:10:16;;;;;;;5.28;1.30;;;18.30;70.00;;;;;;5026691;28;20086;-66
2021/06/15 04:12:45;;;;;;;2.88;1.42;;;18.40;70.00;;;;;;5027590;28;20029;-70
2021/06/15 04:15:12;;;;;;;1.98;1.20;;;18.40;69.10;;;;;;5026756;28;20427;-69
2021/06/15 04:17:51;;;;;;;3.20;1.40;;;18.50;69.40;;;;;;5019867;28;20049;-65
2021/06/15 04:20:29;;;;;;;4.18;1.58;;;18.50;69.00;;;;;;5026685;28;20056;-66
2021/06/15 04:22:58;;;;;;;2.88;1.20;;;18.50;69.20;;;;;;5022315;28;20025;-71
2021/06/15 04:25:31;;;;;;;3.17;1.45;;;18.60;69.20;;;;;;5022609;28;20546;-72
2021/06/15 04:28:00;;;;;;;3.72;1.83;;;18.70;68.60;;;;;;5025403;28;20106;-71
2021/06/15 04:30:29;;;;;;;6.47;1.67;;;18.70;68.00;;;;;;5021239;28;20470;-68
2021/06/15 04:32:57;;;;;;;5.63;1.33;;;18.70;67.90;;;;;;5010137;28;20396;-66
2021/06/15 04:35:29;;;;;;;3.00;1.33;;;18.80;67.00;;;;;;5034371;28;20020;-70
2021/06/15 04:38:01;;;;;;;2.87;1.40;;;18.80;66.90;;;;;;5027989;28;20022;-65
2021/06/15 04:40:31;;;;;;;1.98;1.20;;;18.80;66.60;;;;;;5033103;28;20052;-66
2021/06/15 04:43:10;;;;;;;4.00;1.70;;;18.80;66.40;;;;;;5034056;28;20029;-67
2021/06/15 04:45:44;;;;;;;3.20;1.77;;;18.60;66.40;;;;;;5027152;28;20025;-66
2021/06/15 04:48:33;;;;;;;2.15;1.52;;;18.60;68.20;;;;;;5027164;28;20030;-65
2021/06/15 04:51:03;;;;;;;4.20;1.30;;;18.70;67.30;;;;;;5027129;28;20045;-69
2021/06/15 04:53:38;;;;;;;3.55;1.52;;;18.80;67.00;;;;;;5009737;28;20387;-65
2021/06/15 04:56:08;;;;;;;2.17;1.10;;;18.90;67.00;;;;;;5033961;28;20036;-69
2021/06/15 04:58:35;;;;;;;7.47;1.55;;;18.90;65.30;;;;;;5027386;28;20087;-65
2021/06/15 05:01:03;;;;;;;3.83;1.20;;;18.70;66.50;;;;;;5027181;28;20099;-66
2021/06/15 05:03:33;;;;;;;2.80;1.30;;;18.70;66.90;;;;;;5026341;28;20043;-65
2021/06/15 05:06:07;;;;;;;2.22;1.48;;;18.60;66.10;;;;;;5033967;28;20080;-64
2021/06/15 05:08:45;;;;;;;3.45;1.00;;;18.50;66.70;;;;;;5032969;28;20059;-69
2021/06/15 05:11:13;;;;;;;2.65;1.50;;;18.40;67.10;;;;;;5017312;28;20030;-66
2021/06/15 05:13:42;;;;;;;3.05;2.25;;;18.30;67.20;;;;;;5021790;28;20033;-70
2021/06/15 05:16:11;;;;;;;4.25;1.52;;;18.30;66.90;;;;;;5023517;28;20721;-66
2021/06/15 05:18:38;;;;;;;2.00;1.10;;;18.60;65.70;;;;;;5016717;28;20404;-68
2021/06/15 05:21:13;;;;;;;2.20;1.48;;;19.20;65.30;;;;;;5012505;28;20021;-68
2021/06/15 05:24:01;;;;;;;4.28;1.50;;;19.80;62.40;;;;;;5015141;28;20369;-66
2021/06/15 05:26:30;;;;;;;1.75;1.30;;;20.00;61.30;;;;;;5014830;28;20029;-67
2021/06/15 05:28:56;;;;;;;4.47;3.80;;;19.70;63.00;;;;;;5012361;28;20018;-67
2021/06/15 05:31:23;;;;;;;2.38;1.50;;;19.40;64.50;;;;;;5012039;28;20085;-67
2021/06/15 05:33:50;;;;;;;6.57;3.97;;;19.20;64.60;;;;;;5022075;28;20033;-70
2021/06/15 05:36:17;;;;;;;3.63;2.50;;;18.90;66.40;;;;;;5016806;28;20025;-66
2021/06/15 05:38:44;;;;;;;3.90;1.60;;;18.60;66.10;;;;;;5012986;28;20038;-67
2021/06/15 05:41:12;;;;;;;3.38;1.40;;;18.30;67.50;;;;;;5017428;28;20033;-69
2021/06/15 05:43:39;;;;;;;5.57;1.58;;;18.10;68.20;;;;;;5019545;28;20130;-67
2021/06/15 05:46:06;;;;;;;3.20;1.40;;;18.00;69.40;;;;;;5017782;28;20124;-69
2021/06/15 05:48:33;;;;;;;4.15;1.30;;;17.70;70.10;;;;;;5000515;28;20041;-67
2021/06/15 05:51:09;;;;;;;3.00;1.48;;;17.50;71.80;;;;;;5017242;28;20063;-67
2021/06/15 05:53:36;;;;;;;4.10;1.67;;;17.40;73.30;;;;;;5016477;28;20157;-69
2021/06/15 05:56:03;;;;;;;3.42;1.77;;;17.30;74.20;;;;;;5015728;28;20072;-69
2021/06/15 05:58:30;;;;;;;3.53;1.65;;;17.20;74.90;;;;;;5013617;28;20041;-66
2021/06/15 06:00:57;;;;;;;2.42;1.70;;;17.10;75.40;;;;;;4996899;28;20092;-66
2021/06/15 06:03:33;;;;;;;6.72;1.77;;;17.00;75.80;;;;;;5014679;28;20017;-69
2021/06/15 06:08:46;;;;;;;3.65;1.80;;;16.80;77.80;;;;;;5012093;28;20129;-68
2021/06/15 06:11:13;;;;;;;4.68;2.08;;;16.70;78.30;;;;;;5016266;28;20041;-68
2021/06/15 06:13:40;;;;;;;4.53;2.17;;;16.70;78.00;;;;;;5017258;28;20135;-69
2021/06/15 06:16:12;;;;;;;6.03;4.63;;;16.70;78.40;;;;;;4999520;28;20049;-69
2021/06/15 06:18:40;;;;;;;5.78;4.57;;;16.70;78.80;;;;;;5014586;28;20044;-69
2021/06/15 06:21:10;;;;;;;7.35;6.65;;;16.60;78.90;;;;;;5013194;28;20026;-68
2021/06/15 06:23:37;;;;;;;8.85;4.50;;;16.60;79.50;;;;;;5018351;28;20022;-69
2021/06/15 06:26:05;;;;;;;4.78;3.28;;;16.60;80.10;;;;;;5013416;28;20167;-67
2021/06/15 06:28:32;;;;;;;4.28;2.85;;;16.50;80.30;;;;;;5024025;28;20494;-67
2021/06/15 06:31:00;;;;;;;8.10;3.40;;;16.50;81.00;;;;;;5018070;28;20033;-65
2021/06/15 06:33:27;;;;;;;11.05;6.05;;;16.40;81.00;;;;;;5025344;28;20038;-65
2021/06/15 06:35:55;;;;;;;11.57;5.18;;;16.40;80.70;;;;;;5022231;28;20030;-73
2021/06/15 06:38:22;;;;;;;11.98;7.10;;;16.40;81.20;;;;;;5023040;28;20132;-68
2021/06/15 06:40:49;;;;;;;7.50;3.88;;;16.30;81.00;;;;;;5018425;28;20101;-66
2021/06/15 06:43:16;;;;;;;9.48;5.82;;;16.20;80.90;;;;;;5004644;28;20029;-67
2021/06/15 06:45:43;;;;;;;14.52;9.25;;;16.20;80.70;;;;;;5021227;28;20082;-69
2021/06/15 06:48:11;;;;;;;11.65;8.23;;;16.10;81.50;;;;;;5019973;28;20036;-68
2021/06/15 06:50:38;;;;;;;23.30;14.88;;;16.00;81.80;;;;;;5021935;28;20041;-68
2021/06/15 06:53:05;;;;;;;16.38;10.80;;;15.90;82.60;;;;;;5020768;28;20037;-66
2021/06/15 06:55:33;;;;;;;18.55;12.32;;;15.80;83.20;;;;;;5001924;28;20040;-66
2021/06/15 06:58:00;;;;;;;29.15;19.05;;;15.70;83.70;;;;;;5017985;28;20044;-70
2021/06/15 07:00:28;;;;;;;10.20;8.18;;;15.60;83.70;;;;;;5023091;28;20025;-67
2021/06/15 07:02:55;;;;;;;5.93;5.05;;;15.60;84.10;;;;;;5020506;28;20478;-71
2021/06/15 07:05:22;;;;;;;6.43;4.43;;;15.50;84.60;;;;;;5038534;22;20600;-66
2021/06/15 07:07:51;;;;;;;5.85;3.75;;;15.40;84.80;;;;;;5038036;28;20498;-66
2021/06/15 07:10:19;;;;;;;7.30;2.75;;;15.30;85.60;;;;;;5043855;28;20061;-68
2021/06/15 07:12:46;;;;;;;6.03;2.72;;;15.20;86.10;;;;;;5044759;28;20112;-68
2021/06/15 07:15:13;;;;;;;6.57;3.50;;;15.00;86.90;;;;;;5039042;28;20022;-68
2021/06/15 07:17:41;;;;;;;4.20;2.80;;;14.90;87.60;;;;;;5041666;28;20032;-64
2021/06/15 07:20:09;;;;;;;5.85;2.67;;;14.90;88.20;;;;;;5045686;28;20024;-69
2021/06/15 07:22:36;;;;;;;6.63;3.53;;;14.80;88.70;;;;;;5042775;28;20028;-64
2021/06/15 07:25:05;;;;;;;11.82;8.85;;;14.80;88.80;;;;;;5041495;28;20447;-64
2021/06/15 07:27:32;;;;;;;46.70;31.60;;;14.70;89.00;;;;;;5037815;28;20025;-67
2021/06/15 07:29:59;;;;;;;65.55;48.30;;;14.60;89.50;;;;;;5039872;28;20036;-67
2021/06/15 07:32:26;;;;;;;9.10;6.90;;;14.60;89.60;;;;;;5035596;28;20482;-67
2021/06/15 07:34:55;;;;;;;4.30;2.55;;;14.70;89.70;;;;;;5042214;28;20032;-69
2021/06/15 07:37:22;;;;;;;4.55;3.00;;;14.60;90.00;;;;;;5040313;28;20029;-65
2021/06/15 07:39:50;;;;;;;7.72;2.90;;;14.60;90.20;;;;;;5043168;28;20029;-65
2021/06/15 07:42:18;;;;;;;4.10;2.55;;;14.50;90.40;;;;;;5038983;28;20042;-67
2021/06/15 07:44:45;;;;;;;7.30;2.90;;;14.50;90.40;;;;;;5037290;28;20029;-68
2021/06/15 07:47:13;;;;;;;4.38;2.53;;;14.40;90.50;;;;;;5040312;28;20017;-67
2021/06/15 07:49:40;;;;;;;8.15;2.45;;;14.30;90.70;;;;;;5040899;28;20036;-69
2021/06/15 07:52:07;;;;;;;4.38;2.50;;;14.20;90.80;;;;;;5040394;28;20500;-67
2021/06/15 07:54:35;;;;;;;4.70;2.60;;;14.20;91.10;;;;;;5039786;28;20025;-70
2021/06/15 07:57:02;;;;;;;4.43;2.75;;;14.10;91.20;;;;;;5040724;28;20033;-70
2021/06/15 07:59:29;;;;;;;8.38;3.08;;;14.00;91.30;;;;;;5038607;28;20024;-70
2021/06/15 08:01:56;;;;;;;12.27;4.45;;;13.90;91.40;;;;;;5041375;28;20018;-66
2021/06/15 08:04:23;;;;;;;6.30;3.17;;;13.80;91.70;;;;;;5038307;28;20091;-71
2021/06/15 08:06:50;;;;;;;4.57;2.72;;;13.90;91.90;;;;;;5037714;28;20531;-68
2021/06/15 08:09:17;;;;;;;7.70;3.28;;;13.90;91.80;;;;;;5039321;28;20025;-75
2021/06/15 08:11:44;;;;;;;6.32;3.13;;;13.90;91.90;;;;;;5039521;28;20422;-74
2021/06/15 08:14:12;;;;;;;8.75;3.72;;;13.80;91.90;;;;;;5040395;28;20376;-72
2021/06/15 08:16:39;;;;;;;7.57;3.40;;;13.60;92.30;;;;;;5043803;28;20396;-70
2021/06/15 08:19:06;;;;;;;7.22;3.55;;;13.50;92.70;;;;;;5044046;28;20571;-67
2021/06/15 08:21:34;;;;;;;7.00;4.22;;;13.40;93.00;;;;;;5044863;28;20655;-67
2021/06/15 08:24:01;;;;;;;8.05;5.30;;;13.30;93.40;;;;;;5044753;28;20032;-65
2021/06/15 08:26:28;;;;;;;6.38;4.68;;;13.30;93.50;;;;;;5042066;28;20042;-67
2021/06/15 08:28:55;;;;;;;8.00;4.30;;;13.30;93.50;;;;;;5036709;28;20048;-72
2021/06/15 08:31:22;;;;;;;6.25;3.47;;;13.30;93.50;;;;;;5035764;28;20163;-69
2021/06/15 08:33:49;;;;;;;6.68;3.40;;;13.30;93.50;;;;;;5036711;28;20370;-73
2021/06/15 08:36:16;;;;;;;6.70;3.90;;;13.20;93.50;;;;;;5033873;28;20377;-76
2021/06/15 08:38:43;;;;;;;8.75;4.22;;;13.20;93.60;;;;;;5033467;28;20025;-69
2021/06/15 08:41:10;;;;;;;5.72;3.50;;;13.10;93.80;;;;;;5033245;28;20396;-70
2021/06/15 08:43:37;;;;;;;4.15;3.50;;;13.00;93.80;;;;;;5037481;28;20021;-71
2021/06/15 08:46:06;;;;;;;6.68;3.17;;;13.00;93.80;;;;;;5032319;28;20048;-67
2021/06/15 08:48:34;;;;;;;8.77;4.70;;;12.80;94.00;;;;;;5032223;28;20123;-74
2021/06/15 08:51:02;;;;;;;6.93;4.15;;;12.80;94.20;;;;;;5033008;28;21200;-69
2021/06/15 08:53:33;;;;;;;6.60;4.15;;;12.80;94.60;;;;;;5031825;28;20021;-72
2021/06/15 08:56:31;;;;;;;8.13;3.70;;;12.90;94.50;;;;;;5032354;28;20322;-70
2021/06/15 08:59:07;;;;;;;6.38;4.38;;;12.90;94.30;;;;;;5028915;28;21653;-68
2021/06/15 09:01:34;;;;;;;7.35;3.85;;;12.90;94.40;;;;;;5037758;28;20026;-70
2021/06/15 09:04:01;;;;;;;7.15;3.58;;;12.80;94.60;;;;;;5021397;28;20135;-72
2021/06/15 09:06:29;;;;;;;7.88;3.95;;;12.70;94.80;;;;;;5035377;28;20201;-71
2021/06/15 09:09:00;;;;;;;5.55;3.65;;;12.70;94.90;;;;;;5054198;28;20076;-75
2021/06/15 09:11:46;;;;;;;6.38;4.18;;;12.60;95.20;;;;;;5029216;28;20463;-68
2021/06/15 09:14:13;;;;;;;5.28;3.15;;;12.50;95.40;;;;;;5044760;28;20033;-72
2021/06/15 09:16:46;;;;;;;9.27;4.38;;;12.50;95.30;;;;;;5037942;28;20039;-71
2021/06/15 09:19:25;;;;;;;5.35;4.00;;;12.50;95.20;;;;;;5043256;28;20110;-70
2021/06/15 09:21:57;;;;;;;6.30;3.60;;;12.50;95.60;;;;;;5044643;28;20435;-70
2021/06/15 09:24:26;;;;;;;5.03;3.63;;;12.40;95.50;;;;;;5041434;28;20138;-69
2021/06/15 09:27:08;;;;;;;7.47;3.85;;;12.30;95.70;;;;;;5040366;28;20483;-68
2021/06/15 09:29:35;;;;;;;6.75;3.40;;;12.30;95.70;;;;;;5033964;28;20029;-68
2021/06/15 09:32:02;;;;;;;8.90;3.95;;;12.20;95.70;;;;;;5041219;28;20076;-75
2021/06/15 09:34:29;;;;;;;6.00;3.90;;;12.20;95.70;;;;;;5041626;28;20033;-70
2021/06/15 09:36:56;;;;;;;7.80;4.03;;;12.20;95.70;;;;;;5043803;28;20108;-71
2021/06/15 09:39:23;;;;;;;6.53;3.97;;;12.10;95.90;;;;;;5037306;28;20111;-71
2021/06/15 09:41:50;;;;;;;4.78;3.83;;;12.00;95.90;;;;;;5039528;28;20023;-72
2021/06/15 09:44:25;;;;;;;8.60;4.55;;;12.00;95.90;;;;;;5036168;28;20590;-71
2021/06/15 09:46:54;;;;;;;8.32;4.20;;;11.90;96.10;;;;;;5041416;28;20112;-72
2021/06/15 09:49:39;;;;;;;11.30;4.97;;;11.90;96.20;;;;;;5047589;28;20779;-73
2021/06/15 09:52:14;;;;;;;5.38;4.32;;;11.90;96.60;;;;;;5044657;28;20483;-72
2021/06/15 09:54:46;;;;;;;6.50;4.28;;;11.90;96.40;;;;;;5044273;28;20546;-71
2021/06/15 09:57:20;;;;;;;6.57;4.00;;;11.90;96.50;;;;;;5034345;28;20048;-69
2021/06/15 10:00:10;;;;;;;7.47;4.38;;;11.90;96.50;;;;;;5035707;28;20025;-71
2021/06/15 10:03:00;;;;;;;4.85;4.03;;;11.80;96.60;;;;;;5037177;28;20074;-73
2021/06/15 10:05:31;;;;;;;8.85;3.83;;;11.80;96.70;;;;;;5041457;28;20049;-71
2021/06/15 10:08:06;;;;;;;8.63;4.22;;;11.70;96.80;;;;;;5042258;28;20037;-72
2021/06/15 10:10:39;;;;;;;9.65;4.32;;;11.70;96.70;;;;;;5033961;28;20370;-68
2021/06/15 10:13:07;;;;;;;4.82;3.45;;;11.70;96.70;;;;;;5030511;28;20031;-73
2021/06/15 10:15:38;;;;;;;7.75;3.90;;;11.60;96.50;;;;;;5038024;28;20095;-73
2021/06/15 10:18:06;;;;;;;7.47;4.30;;;11.60;96.60;;;;;;5049661;28;20029;-69
2021/06/15 10:20:35;;;;;;;8.10;4.65;;;11.50;96.70;;;;;;5036850;28;20028;-70
2021/06/15 10:23:03;;;;;;;9.52;4.40;;;11.50;96.90;;;;;;5033097;28;20354;-70
2021/06/15 10:25:33;;;;;;;7.75;4.82;;;11.50;97.00;;;;;;5035583;28;20036;-70
2021/06/15 10:28:09;;;;;;;7.03;5.15;;;11.40;97.30;;;;;;5035500;28;20033;-69
2021/06/15 10:30:37;;;;;;;9.63;4.45;;;11.30;97.20;;;;;;5040076;28;20024;-73
2021/06/15 10:33:17;;;;;;;7.07;4.53;;;11.20;97.00;;;;;;5037789;28;20553;-70
2021/06/15 10:35:53;;;;;;;6.72;4.40;;;11.10;97.30;;;;;;5037299;28;20084;-70
2021/06/15 10:38:26;;;;;;;10.13;5.05;;;11.00;97.40;;;;;;5033958;28;20554;-70
2021/06/15 10:40:54;;;;;;;;;;;11.00;97.50;;;;;;5036556;28;20122;-72
2021/06/15 10:43:29;;;;;;;11.48;6.80;;;10.90;97.60;;;;;;5037669;28;19917;-68
2021/06/15 10:46:14;;;;;;;8.32;5.40;;;10.80;97.50;;;;;;5038064;28;20814;-73
2021/06/15 10:48:46;;;;;;;10.98;5.72;;;10.80;97.60;;;;;;5039063;28;20475;-68
2021/06/15 10:51:40;;;;;;;7.55;5.00;;;10.70;97.70;;;;;;5039070;28;20024;-73
2021/06/15 10:54:28;;;;;;;13.75;5.88;;;10.70;97.70;;;;;;5036265;28;20124;-72
2021/06/15 10:57:18;;;;;;;16.55;6.38;;;10.80;97.70;;;;;;5031352;28;20487;-74
2021/06/15 11:00:12;;;;;;;14.75;6.38;;;10.90;97.80;;;;;;5035278;28;20032;-68
2021/06/15 11:02:40;;;;;;;11.30;5.93;;;10.90;97.80;;;;;;5034025;28;20029;-69
2021/06/15 11:05:44;;;;;;;15.18;5.57;;;10.80;97.60;;;;;;5034625;28;20444;-74
2021/06/15 11:08:30;;;;;;;13.73;6.20;;;10.80;97.70;;;;;;5035395;28;20025;-74
2021/06/15 11:11:19;;;;;;;11.75;6.00;;;10.70;98.00;;;;;;5039401;28;20029;-68
2021/06/15 11:14:04;;;;;;;17.17;6.25;;;10.70;98.10;;;;;;5036241;28;20056;-68
2021/06/15 11:16:35;;;;;;;12.73;6.68;;;10.70;98.30;;;;;;5038298;28;20373;-70
2021/06/15 11:19:11;;;;;;;13.45;6.47;;;10.60;98.10;;;;;;5042559;28;20104;-74
2021/06/15 11:22:01;;;;;;;12.32;6.20;;;10.60;98.30;;;;;;5033426;28;20163;-69
2021/06/15 11:24:39;;;;;;;13.73;6.63;;;10.50;98.30;;;;;;5034895;28;20029;-72
2021/06/15 11:27:19;;;;;;;10.13;7.00;;;10.50;98.20;;;;;;5038838;28;20059;-72
2021/06/15 11:29:49;;;;;;;11.90;7.50;;;10.50;98.30;;;;;;5040003;28;20025;-75
2021/06/15 11:32:16;;;;;;;8.07;6.72;;;10.50;98.30;;;;;;5041185;28;20036;-71
2021/06/15 11:34:59;;;;;;;12.40;7.38;;;10.50;98.30;;;;;;5037426;28;20033;-69
2021/06/15 11:37:34;;;;;;;8.88;5.97;;;10.60;97.90;;;;;;5040290;28;20025;-73
2021/06/15 11:40:29;;;;;;;8.98;6.50;;;10.60;97.90;;;;;;5033341;28;20033;-69
2021/06/15 11:43:16;;;;;;;10.40;7.53;;;10.50;97.80;;;;;;5043381;28;20510;-72
2021/06/15 11:45:52;;;;;;;11.57;7.82;;;10.40;98.10;;;;;;5039408;28;20032;-71
2021/06/15 11:48:35;;;;;;;10.25;8.20;;;10.30;98.00;;;;;;5029726;28;20265;-71
2021/06/15 11:51:07;;;;;;;13.57;9.68;;;10.20;97.80;;;;;;5042333;28;20529;-69
2021/06/15 11:53:37;;;;;;;12.48;8.13;;;10.20;97.90;;;;;;5040806;28;20040;-69
2021/06/15 11:56:14;;;;;;;11.41;6.27;;;10.10;97.90;;;;;;4971510;28;10001215;-74
2021/06/15 11:58:47;;;;;;;9.10;5.32;;;10.00;98.00;;;;;;5037369;28;20617;-73
2021/06/15 12:01:15;;;;;;;12.90;6.63;;;10.00;98.30;;;;;;5036037;28;20108;-68
2021/06/15 12:03:47;;;;;;;12.48;6.43;;;10.00;98.30;;;;;;5042795;28;20037;-73
2021/06/15 12:06:17;;;;;;;7.82;6.20;;;9.90;98.20;;;;;;5042503;28;20053;-74
2021/06/15 12:08:46;;;;;;;8.82;6.65;;;9.70;98.30;;;;;;5037310;28;20047;-73
2021/06/15 12:11:18;;;;;;;7.90;6.38;;;9.70;98.40;;;;;;5040062;28;20029;-75
2021/06/15 12:13:48;;;;;;;10.88;6.43;;;9.60;98.50;;;;;;5035071;28;20111;-71
2021/06/15 12:16:18;;;;;;;8.77;5.97;;;9.60;98.50;;;;;;5037930;28;20024;-74
2021/06/15 12:18:50;;;;;;;13.30;8.00;;;9.60;98.50;;;;;;5037152;28;20021;-75
2021/06/15 12:21:22;;;;;;;14.02;9.02;;;9.60;98.60;;;;;;5038902;28;20017;-74
2021/06/15 12:23:56;;;;;;;14.40;11.13;;;9.50;98.50;;;;;;5043262;28;20063;-73
2021/06/15 12:26:32;;;;;;;15.55;11.07;;;9.50;98.60;;;;;;5042597;28;20037;-69
2021/06/15 12:29:11;;;;;;;17.90;11.98;;;9.50;98.70;;;;;;5041454;28;20029;-74
2021/06/15 12:31:43;;;;;;;17.50;13.70;;;9.40;98.80;;;;;;5046638;28;20032;-70
2021/06/15 12:34:16;;;;;;;18.20;14.05;;;9.40;98.80;;;;;;5043846;28;20541;-69
2021/06/15 12:36:46;;;;;;;20.30;15.68;;;9.50;98.80;;;;;;5036317;28;20493;-73
2021/06/15 12:39:18;;;;;;;21.67;14.45;;;9.40;99.00;;;;;;5045761;28;20024;-70
2021/06/15 12:41:47;;;;;;;19.42;13.55;;;9.50;98.80;;;;;;5044123;28;20025;-75
2021/06/15 12:44:14;;;;;;;17.60;13.20;;;9.40;98.70;;;;;;5039022;28;20039;-71
2021/06/15 12:46:43;;;;;;;23.20;14.15;;;9.30;98.70;;;;;;5045009;28;20025;-70
2021/06/15 12:49:22;;;;;;;19.38;14.68;;;9.20;98.70;;;;;;5041695;28;20096;-70
2021/06/15 12:51:54;;;;;;;21.33;16.35;;;9.20;98.80;;;;;;5039414;28;20042;-74
2021/06/15 12:54:29;;;;;;;23.35;15.60;;;9.10;98.90;;;;;;5043584;28;20401;-74
2021/06/15 12:56:57;;;;;;;19.48;15.15;;;9.10;99.00;;;;;;5043086;28;20695;-71
2021/06/15 12:59:24;;;;;;;20.77;14.65;;;9.00;99.00;;;;;;5043514;28;20026;-74
2021/06/15 13:01:54;;;;;;;23.77;15.50;;;9.00;99.20;;;;;;5040270;28;20025;-73
2021/06/15 13:04:25;;;;;;;20.17;15.27;;;9.00;99.00;;;;;;5046052;28;20104;-74
2021/06/15 13:06:54;;;;;;;25.67;18.10;;;9.00;99.00;;;;;;5045134;28;20029;-70
2021/06/15 13:09:26;;;;;;;26.63;18.02;;;9.00;99.10;;;;;;5044757;28;20029;-70
2021/06/15 13:12:17;;;;;;;25.88;17.80;;;9.00;99.10;;;;;;5044908;28;20025;-74